createdAt,value
2023-04-12T00:03:52.419Z,43.13
2023-04-12T00:09:02.268Z,52.92
2023-04-12T00:14:07.745Z,47.92
2023-04-12T00:19:13.907Z,29.53
2023-04-12T00:24:20.012Z,51.03
2023-04-12T00:29:25.565Z,34.30
2023-04-12T00:34:31.385Z,54.63
2023-04-12T00:39:36.982Z,25.75
2023-04-12T00:44:42.851Z,49.28
2023-04-12T00:49:48.610Z,45.28
2023-04-12T00:54:55.971Z,47.63
2023-04-12T01:00:01.614Z,45.35
2023-04-12T01:05:09.249Z,46.83
2023-04-12T01:10:24.005Z,52.08
2023-04-12T01:15:34.321Z,36.20
2023-04-12T01:20:49.944Z,37.38
2023-04-12T01:26:37.217Z,41.53
2023-04-12T01:31:48.892Z,43.67
2023-04-12T01:36:59.043Z,36.92
2023-04-12T01:42:05.181Z,49.63
2023-04-12T01:47:10.802Z,31.17
2023-04-12T01:52:24.545Z,37.00
2023-04-12T01:57:30.806Z,43.50
2023-04-12T02:02:43.335Z,51.63
2023-04-12T02:07:50.752Z,38.53
2023-04-12T02:12:56.926Z,49.53
2023-04-12T02:23:08.902Z,41.00
2023-04-12T02:28:15.755Z,44.85
2023-04-12T02:33:26.994Z,42.42
2023-04-12T02:38:34.968Z,50.33
2023-04-12T02:43:42.243Z,44.05
2023-04-12T02:48:48.284Z,50.47
2023-04-12T02:53:54.715Z,46.40
2023-04-12T02:59:03.377Z,42.22
2023-04-12T03:04:32.067Z,48.42
2023-04-12T03:09:39.972Z,48.17
2023-04-12T03:14:46.341Z,49.58
2023-04-12T03:19:52.865Z,38.05
2023-04-12T03:24:59.408Z,43.20
2023-04-12T03:30:06.032Z,43.88
2023-04-12T03:35:15.045Z,47.75
2023-04-12T03:40:21.044Z,42.25
2023-04-12T03:45:35.477Z,46.75
2023-04-12T03:50:49.917Z,45.10
2023-04-12T03:55:59.811Z,49.63
2023-04-12T04:01:09.353Z,48.42
2023-04-12T04:06:15.086Z,52.63
2023-04-12T04:11:21.037Z,47.60
2023-04-12T04:16:32.551Z,55.10
2023-04-12T04:21:42.195Z,42.47
2023-04-12T04:26:48.094Z,43.00
2023-04-12T04:32:03.733Z,46.93
2023-04-12T04:37:11.160Z,37.40
2023-04-12T04:42:18.274Z,39.92
2023-04-12T04:47:38.485Z,33.83
2023-04-12T04:52:44.974Z,36.47
2023-04-12T04:57:53.149Z,35.25
2023-04-12T05:02:59.991Z,42.53
2023-04-12T05:08:07.729Z,42.35
2023-04-12T05:13:14.476Z,35.00
2023-04-12T05:23:26.550Z,46.33
2023-04-12T05:28:32.406Z,46.60
2023-04-12T05:33:39.656Z,46.58
2023-04-12T05:38:46.043Z,44.53
2023-04-12T05:43:51.959Z,41.78
2023-04-12T05:48:58.818Z,39.45
2023-04-12T05:54:09.523Z,42.65
2023-04-12T05:59:16.289Z,44.10
2023-04-12T06:04:34.909Z,38.53
2023-04-12T06:09:53.515Z,38.20
2023-04-12T06:15:02.244Z,38.72
2023-04-12T06:20:11.886Z,37.58
2023-04-12T06:25:18.407Z,35.72
2023-04-12T06:30:26.436Z,29.40
2023-04-12T06:35:33.063Z,36.25
2023-04-12T06:40:40.795Z,31.83
2023-04-12T06:45:49.436Z,20.80
2023-04-12T06:50:55.276Z,20.55
2023-04-12T06:56:00.840Z,24.38
2023-04-12T07:01:11.661Z,24.83
2023-04-12T07:06:25.041Z,28.63
2023-04-12T07:11:33.161Z,21.10
2023-04-12T07:16:38.674Z,32.35
2023-04-12T07:21:44.264Z,29.50
2023-04-12T07:26:50.149Z,38.25
2023-04-12T07:37:02.498Z,33.55
2023-04-12T07:42:13.867Z,29.58
2023-04-12T07:47:19.959Z,32.05
2023-04-12T07:52:26.517Z,41.30
2023-04-12T07:57:34.146Z,40.30
2023-04-12T08:02:40.119Z,33.80
2023-04-12T08:07:48.995Z,40.88
2023-04-12T08:12:57.484Z,36.83
2023-04-12T08:18:05.283Z,35.65
2023-04-12T08:23:10.923Z,36.85
2023-04-12T08:28:19.599Z,35.85
2023-04-12T08:33:29.438Z,31.80
2023-04-12T08:38:58.047Z,32.10
2023-04-12T08:44:04.539Z,38.63
2023-04-12T08:49:09.969Z,33.67
2023-04-12T08:54:15.813Z,36.72
2023-04-12T08:59:22.410Z,36.25
2023-04-12T09:04:28.984Z,37.33
2023-04-12T09:09:51.434Z,35.72
2023-04-12T09:15:22.051Z,36.53
2023-04-12T09:20:27.771Z,38.95
2023-04-12T09:32:06.896Z,32.83
2023-04-12T09:37:22.692Z,31.25
2023-04-12T09:42:33.703Z,28.20
2023-04-12T09:47:42.674Z,37.55
2023-04-12T09:52:48.971Z,35.40
2023-04-12T09:57:56.384Z,22.20
2023-04-12T10:03:03.908Z,20.05
2023-04-12T10:08:09.728Z,17.88
2023-04-12T10:13:17.243Z,26.48
2023-04-12T10:18:28.767Z,29.42
2023-04-12T10:23:37.973Z,26.98
2023-04-12T10:28:48.525Z,27.25
2023-04-12T10:33:58.432Z,31.08
2023-04-12T10:39:13.972Z,30.67
2023-04-12T10:44:28.989Z,27.23
2023-04-12T10:49:39.391Z,31.92
2023-04-12T10:54:45.737Z,46.42
2023-04-12T11:00:00.976Z,35.05
2023-04-12T11:05:12.674Z,38.40
2023-04-12T11:10:41.779Z,40.17
2023-04-12T11:16:01.412Z,46.53
2023-04-12T11:26:55.296Z,30.52
2023-04-12T11:32:43.421Z,32.75
2023-04-12T11:37:49.851Z,30.13
2023-04-12T11:43:01.941Z,35.05
2023-04-12T11:48:16.749Z,31.08
2023-04-12T11:53:40.082Z,23.65
2023-04-12T11:58:57.838Z,37.65
2023-04-12T12:04:09.042Z,32.33
2023-04-12T12:10:10.265Z,38.83
2023-04-12T12:14:55.336Z,34.03
2023-04-12T12:20:04.707Z,45.25
2023-04-12T12:25:25.922Z,37.05
2023-04-12T12:31:44.332Z,39.63
2023-04-12T12:36:59.980Z,55.22
2023-04-12T12:42:07.858Z,42.13
2023-04-12T12:47:15.932Z,41.72
2023-04-12T12:52:26.077Z,52.38
2023-04-12T12:57:31.749Z,39.65
2023-04-12T13:02:40.551Z,42.38
2023-04-12T13:07:47.173Z,39.63
2023-04-12T13:12:54.523Z,39.03
2023-04-12T13:18:03.560Z,47.35
2023-04-12T13:23:16.992Z,39.85
2023-04-12T13:28:25.016Z,25.63
2023-04-12T13:33:41.212Z,32.00
2023-04-12T13:38:55.727Z,30.30
2023-04-12T13:44:02.738Z,38.97
2023-04-12T13:49:14.352Z,31.65
2023-04-12T13:54:34.221Z,36.10
2023-04-12T13:59:44.164Z,38.88
2023-04-12T14:04:59.557Z,33.03
2023-04-12T14:10:06.857Z,31.08
2023-04-12T14:15:13.047Z,37.33
2023-04-12T14:20:32.736Z,37.13
2023-04-12T14:25:43.656Z,33.20
2023-04-12T14:30:54.545Z,35.45
2023-04-12T14:36:08.520Z,38.95
2023-04-12T14:41:22.495Z,43.88
2023-04-12T14:46:43.826Z,37.40
2023-04-12T14:51:50.231Z,41.45
2023-04-12T14:56:57.699Z,51.30
2023-04-12T15:02:06.778Z,47.78
2023-04-12T15:07:16.285Z,35.72
2023-04-12T15:12:22.834Z,35.15
2023-04-12T15:17:33.515Z,35.63
2023-04-12T15:22:40.588Z,29.77
2023-04-12T15:27:47.299Z,45.25
2023-04-12T15:32:56.028Z,26.45
2023-04-12T15:38:01.807Z,33.58
2023-04-12T15:48:20.781Z,38.10
2023-04-12T15:53:29.881Z,48.38
2023-04-12T15:58:39.021Z,35.75
2023-04-12T16:03:50.207Z,41.03
2023-04-12T16:09:00.354Z,53.38
2023-04-12T16:14:10.545Z,43.40
2023-04-12T16:19:17.827Z,43.90
2023-04-12T16:30:57.853Z,45.42
2023-04-12T16:36:03.959Z,49.08
2023-04-12T16:41:14.954Z,31.60
2023-04-12T16:46:25.007Z,36.95
2023-04-12T16:51:37.394Z,25.10
2023-04-12T16:56:44.128Z,41.70
2023-04-12T17:01:49.898Z,42.20
2023-04-12T17:07:27.785Z,33.95
2023-04-12T17:12:33.422Z,40.75
2023-04-12T17:22:45.065Z,38.33
2023-04-12T17:33:02.246Z,35.37
2023-04-12T17:38:08.006Z,30.65
2023-04-12T17:43:13.342Z,45.83
2023-04-12T17:48:18.772Z,36.77
2023-04-12T17:53:24.345Z,40.07
2023-04-12T17:58:29.921Z,45.45
2023-04-12T18:03:35.864Z,40.72
2023-04-12T18:08:41.441Z,32.75
2023-04-12T18:13:47.343Z,38.03
2023-04-12T18:23:58.478Z,35.97
2023-04-12T18:34:13.154Z,40.50
2023-04-12T18:39:18.938Z,29.55
2023-04-12T18:44:24.388Z,29.23
2023-04-12T18:49:30.397Z,31.63
2023-04-12T18:54:35.860Z,32.53
2023-04-12T18:59:41.683Z,30.77
2023-04-12T19:04:47.100Z,32.13
2023-04-12T19:09:52.620Z,24.70
2023-04-12T19:14:58.521Z,25.45
2023-04-12T19:25:10.020Z,23.45
2023-04-12T19:30:16.317Z,25.10
2023-04-12T19:35:22.010Z,22.20
2023-04-12T19:40:30.514Z,20.23
2023-04-12T19:45:37.299Z,19.30
2023-04-12T19:50:43.011Z,20.80
2023-04-12T19:55:48.361Z,22.20
2023-04-12T20:00:56.195Z,20.03
2023-04-12T20:06:05.201Z,21.27
2023-04-12T20:11:11.229Z,19.23
2023-04-12T20:16:17.912Z,20.25
2023-04-12T20:21:24.854Z,20.67
2023-04-12T20:26:34.683Z,22.63
2023-04-12T20:31:40.086Z,23.67
2023-04-12T20:36:45.524Z,22.33
2023-04-12T20:41:52.455Z,22.27
2023-04-12T20:46:59.057Z,24.95
2023-04-12T20:52:05.724Z,23.02
2023-04-12T20:57:11.945Z,27.42
2023-04-12T21:02:18.123Z,27.38
2023-04-12T21:07:27.353Z,27.95
2023-04-12T21:12:36.949Z,32.83
2023-04-12T21:17:43.408Z,31.05
2023-04-12T21:22:49.682Z,28.77
2023-04-12T21:27:55.382Z,27.27
2023-04-12T21:33:00.776Z,29.10
2023-04-12T21:38:06.118Z,25.43
2023-04-12T21:43:11.447Z,22.73
2023-04-12T21:48:17.134Z,27.83
2023-04-12T21:53:22.720Z,32.85
2023-04-12T21:58:31.559Z,30.90
2023-04-12T22:03:38.045Z,27.33
2023-04-12T22:08:45.677Z,29.05
2023-04-12T22:13:51.708Z,29.00
2023-04-12T22:24:02.699Z,31.38
2023-04-12T22:29:08.385Z,29.93
2023-04-12T22:34:14.094Z,24.92
2023-04-12T22:39:20.867Z,24.92
2023-04-12T22:44:27.590Z,23.05
2023-04-12T22:49:32.926Z,22.10
2023-04-12T22:54:38.952Z,26.98
2023-04-12T22:59:44.954Z,23.38
2023-04-12T23:04:53.524Z,23.02
2023-04-12T23:10:00.517Z,26.52
2023-04-12T23:15:07.953Z,24.52
2023-04-12T23:20:14.904Z,24.23
2023-04-12T23:25:20.606Z,23.70
2023-04-12T23:35:40.942Z,21.85
2023-04-12T23:40:46.622Z,23.67
2023-04-12T23:45:52.355Z,21.55
2023-04-12T23:50:58.609Z,21.98
2023-04-12T23:56:03.973Z,18.17
